Gallup Municipal Airport Gallup US
ICAO: KGUP
IATA: GUP
Category: Medium
Scheduled Services: No

Elevation: 6472 ft
TransAlt. 18000 ft.

Airport Communications:
ASOS:118.375
ALBUQUERQUE RDO:122.6
CTAF/UNICOM:122.95

KGUP Zoom In..

Runways:

(A) RW 06 length 7316 ft width 100 ft
LOC 111.70 / hdg 62

(B) RW 24 length 7316 ft width 100 ft
LOC 111.70 / hdg 242

Location; KGUP
Day. 19 / Time. 20.53 Zulu
* Altimeter: 29.89
* Temperature: 23° c. 73.4°f.
* Wind from: 180° Speed 26 kn with Gusts up to 36 kn.
Dewpoint: -14° c.
Visibility: 10 Statute Miles.
Clouds: Clear (automated report).

KGUP 192053Z AUTO 18026G36KT 10SM CLR 23/M14 A2989 RMK AO2 PK WND 18042/2009 SLP013 T02331139 58031


Wind From 180°
Speed 26 kn.

  YouTube Music Video
 
jpsmedia.com for Web Design  worldairports.se 2018   terms of use